createdAt,value
2019-02-26T00:00:28.178Z,4.88
2019-02-26T00:01:28.700Z,5.04
2019-02-26T00:02:28.927Z,4.96
2019-02-26T00:03:29.205Z,4.97
2019-02-26T00:04:29.845Z,5.00
2019-02-26T00:05:28.956Z,4.96
2019-02-26T00:06:30.115Z,4.88
2019-02-26T00:07:29.841Z,4.83
2019-02-26T00:08:29.634Z,4.85
2019-02-26T00:09:29.993Z,4.79
2019-02-26T00:10:29.040Z,4.89
2019-02-26T00:11:29.033Z,4.93
2019-02-26T00:12:28.699Z,4.85
2019-02-26T00:13:29.585Z,4.86
2019-02-26T00:14:30.244Z,4.82
2019-02-26T00:15:31.303Z,4.78
2019-02-26T00:16:29.045Z,4.75
2019-02-26T00:17:28.000Z,4.89
2019-02-26T00:18:28.030Z,4.85
2019-02-26T00:19:27.977Z,4.89
2019-02-26T00:20:30.933Z,4.85
2019-02-26T00:21:29.309Z,5.03
2019-02-26T00:22:29.589Z,5.04
2019-02-26T00:23:30.024Z,5.00
2019-02-26T00:24:30.548Z,5.00
2019-02-26T00:25:27.910Z,5.03
2019-02-26T00:26:27.943Z,5.06
2019-02-26T00:27:28.661Z,5.04
2019-02-26T00:28:27.879Z,4.89
2019-02-26T00:29:29.740Z,4.82
2019-02-26T00:30:27.855Z,4.69
2019-02-26T00:31:28.741Z,4.63
2019-02-26T00:32:29.818Z,4.69
2019-02-26T00:33:28.994Z,4.67
2019-02-26T00:34:27.812Z,4.72
2019-02-26T00:35:27.881Z,4.71
2019-02-26T00:36:29.724Z,4.69
2019-02-26T00:37:28.456Z,4.63
2019-02-26T00:38:27.769Z,4.54
2019-02-26T00:39:29.716Z,4.56
2019-02-26T00:40:27.752Z,4.56
2019-02-26T00:41:29.141Z,4.49
2019-02-26T00:42:28.893Z,4.36
2019-02-26T00:43:29.841Z,4.38
2019-02-26T00:44:29.752Z,4.42
2019-02-26T00:45:29.556Z,4.56
2019-02-26T00:46:28.467Z,4.53
2019-02-26T00:47:29.898Z,4.63
2019-02-26T00:48:27.705Z,4.67
2019-02-26T00:49:28.509Z,4.69
2019-02-26T00:50:28.141Z,4.61
2019-02-26T00:51:27.674Z,4.59
2019-02-26T00:52:28.251Z,4.46
2019-02-26T00:53:28.481Z,4.48
2019-02-26T00:54:29.226Z,4.49
2019-02-26T00:55:29.842Z,4.42
2019-02-26T00:56:29.441Z,4.34
2019-02-26T00:57:29.462Z,4.27
2019-02-26T00:58:27.554Z,4.28
2019-02-26T00:59:27.542Z,4.20
2019-02-26T01:00:28.524Z,4.13
2019-02-26T01:01:27.524Z,4.26
2019-02-26T01:02:27.591Z,4.08
2019-02-26T01:03:27.499Z,4.10
2019-02-26T01:04:27.488Z,4.18
2019-02-26T01:05:27.478Z,4.18
2019-02-26T01:06:29.060Z,4.24
2019-02-26T01:07:28.265Z,4.21
2019-02-26T01:08:27.444Z,4.36
2019-02-26T01:09:29.342Z,4.46
2019-02-26T01:10:27.447Z,4.34
2019-02-26T01:11:27.992Z,4.34
2019-02-26T01:12:27.401Z,4.35
2019-02-26T01:13:28.446Z,4.34
2019-02-26T01:14:27.380Z,4.30
2019-02-26T01:15:27.368Z,4.23
2019-02-26T01:16:27.361Z,4.34
2019-02-26T01:17:27.388Z,4.26
2019-02-26T01:18:28.974Z,4.21
2019-02-26T01:19:27.325Z,4.20
2019-02-26T01:20:28.001Z,4.10
2019-02-26T01:21:29.110Z,4.09
2019-02-26T01:22:27.336Z,4.12
2019-02-26T01:23:28.922Z,4.09
2019-02-26T01:24:28.079Z,4.09
2019-02-26T01:25:27.261Z,4.09
2019-02-26T01:26:27.871Z,4.12
2019-02-26T01:27:27.240Z,4.21
2019-02-26T01:28:29.215Z,4.20
2019-02-26T01:29:27.804Z,4.27
2019-02-26T01:30:29.398Z,4.34
2019-02-26T01:31:29.095Z,4.36
2019-02-26T01:32:27.188Z,4.30
2019-02-26T01:33:29.757Z,4.26
2019-02-26T01:34:27.207Z,4.16
2019-02-26T01:35:28.847Z,4.17
2019-02-26T01:36:27.179Z,4.16
2019-02-26T01:37:27.853Z,4.09
2019-02-26T01:38:27.122Z,4.10
2019-02-26T01:39:27.111Z,4.09
2019-02-26T01:40:27.144Z,4.13
2019-02-26T01:41:27.353Z,4.08
2019-02-26T01:42:29.269Z,4.09
2019-02-26T01:43:27.067Z,4.00
2019-02-26T01:44:30.434Z,4.00
2019-02-26T01:45:29.905Z,3.84
2019-02-26T01:46:27.034Z,4.08
2019-02-26T01:47:28.528Z,4.17
2019-02-26T01:48:27.013Z,4.30
2019-02-26T01:49:28.528Z,4.34
2019-02-26T01:50:28.418Z,4.35
2019-02-26T01:51:28.608Z,4.34
2019-02-26T01:52:26.969Z,4.38
2019-02-26T01:53:27.433Z,4.30
2019-02-26T01:54:28.276Z,4.30
2019-02-26T01:55:27.626Z,4.27
2019-02-26T01:56:26.925Z,4.23
2019-02-26T01:57:27.755Z,4.23
2019-02-26T01:58:26.904Z,4.26
2019-02-26T01:59:26.893Z,4.38
2019-02-26T02:00:26.887Z,4.38
2019-02-26T02:01:26.884Z,4.43
2019-02-26T02:02:28.245Z,4.34
2019-02-26T02:03:28.020Z,4.41
2019-02-26T02:04:26.840Z,4.30
2019-02-26T02:05:29.482Z,4.27
2019-02-26T02:06:26.829Z,4.23
2019-02-26T02:07:28.745Z,4.27
2019-02-26T02:08:26.837Z,4.24
2019-02-26T02:09:26.783Z,4.12
2019-02-26T02:10:26.774Z,4.08
2019-02-26T02:11:30.628Z,4.00
2019-02-26T02:12:29.500Z,4.00
2019-02-26T02:13:28.752Z,3.98
2019-02-26T02:14:26.729Z,4.02
2019-02-26T02:15:26.718Z,3.96
2019-02-26T02:16:29.042Z,4.10
2019-02-26T02:17:28.671Z,4.12
2019-02-26T02:18:29.352Z,4.23
2019-02-26T02:19:27.612Z,4.30
2019-02-26T02:20:26.726Z,4.30
2019-02-26T02:21:30.423Z,4.23
2019-02-26T02:22:26.644Z,4.30
2019-02-26T02:23:28.039Z,4.30
2019-02-26T02:24:26.674Z,4.23
2019-02-26T02:25:28.965Z,4.34
2019-02-26T02:26:26.600Z,4.27
2019-02-26T02:27:28.160Z,4.27
2019-02-26T02:28:28.604Z,4.24
2019-02-26T02:29:28.529Z,4.23
2019-02-26T02:30:30.359Z,4.27
2019-02-26T02:31:30.375Z,4.35
2019-02-26T02:32:28.660Z,4.39
2019-02-26T02:33:29.364Z,4.24
2019-02-26T02:34:29.332Z,4.20
2019-02-26T02:35:26.571Z,4.26
2019-02-26T02:36:26.803Z,4.34
2019-02-26T02:37:27.447Z,4.21
2019-02-26T02:38:26.517Z,4.27
2019-02-26T02:39:29.054Z,4.24
2019-02-26T02:40:26.448Z,4.24
2019-02-26T02:41:26.437Z,4.16
2019-02-26T02:42:26.429Z,4.09
2019-02-26T02:43:26.416Z,3.96
2019-02-26T02:44:26.451Z,3.91
2019-02-26T02:45:26.394Z,3.88
2019-02-26T02:46:26.385Z,3.81
2019-02-26T02:47:28.538Z,3.84
2019-02-26T02:48:26.362Z,3.84
2019-02-26T02:49:26.351Z,3.80
2019-02-26T02:50:26.343Z,3.72
2019-02-26T02:51:28.158Z,3.66
2019-02-26T02:52:27.186Z,3.64
2019-02-26T02:53:27.419Z,3.59
2019-02-26T02:54:26.299Z,3.76
2019-02-26T02:55:26.287Z,3.63
2019-02-26T02:56:26.273Z,3.59
2019-02-26T02:57:26.940Z,3.62
2019-02-26T02:58:26.255Z,3.48
2019-02-26T02:59:28.187Z,3.63
2019-02-26T03:00:28.488Z,3.60
2019-02-26T03:01:28.629Z,3.51
2019-02-26T03:02:26.211Z,3.55
2019-02-26T03:03:26.197Z,3.62
2019-02-26T03:04:29.056Z,3.63
2019-02-26T03:05:26.179Z,3.49
2019-02-26T03:06:28.092Z,3.64
2019-02-26T03:07:27.378Z,3.64
2019-02-26T03:08:26.145Z,3.52
2019-02-26T03:09:26.135Z,3.70
2019-02-26T03:10:30.532Z,3.69
2019-02-26T03:11:26.110Z,3.69
2019-02-26T03:12:26.103Z,3.69
2019-02-26T03:13:28.007Z,3.81
2019-02-26T03:14:26.079Z,3.80
2019-02-26T03:15:27.393Z,3.80
2019-02-26T03:16:27.181Z,3.78
2019-02-26T03:17:26.094Z,3.80
2019-02-26T03:18:26.034Z,3.91
2019-02-26T03:19:26.065Z,3.94
2019-02-26T03:20:28.694Z,3.94
2019-02-26T03:21:27.888Z,3.76
2019-02-26T03:22:25.996Z,3.90
2019-02-26T03:23:25.985Z,3.81
2019-02-26T03:24:28.404Z,3.87
2019-02-26T03:25:27.198Z,3.88
2019-02-26T03:26:28.005Z,3.87
2019-02-26T03:27:27.976Z,4.00
2019-02-26T03:28:26.932Z,3.98
2019-02-26T03:29:25.916Z,4.02
2019-02-26T03:30:32.879Z,3.99
2019-02-26T03:31:33.744Z,3.96
2019-02-26T03:32:26.885Z,4.00
2019-02-26T03:33:25.915Z,4.00
2019-02-26T03:34:26.084Z,3.91
2019-02-26T03:35:25.850Z,3.92
2019-02-26T03:36:25.842Z,3.96
2019-02-26T03:37:28.492Z,3.98
2019-02-26T03:38:26.995Z,3.99
2019-02-26T03:39:25.848Z,3.88
2019-02-26T03:40:27.252Z,3.87
2019-02-26T03:41:28.325Z,3.90
2019-02-26T03:42:25.775Z,3.87
2019-02-26T03:43:25.773Z,3.82
2019-02-26T03:44:29.569Z,3.82
2019-02-26T03:45:25.751Z,3.84
2019-02-26T03:46:25.738Z,3.80
2019-02-26T03:47:25.759Z,3.81
2019-02-26T03:48:25.714Z,3.78
2019-02-26T03:49:27.082Z,3.76
2019-02-26T03:50:27.064Z,3.84
2019-02-26T03:51:25.679Z,3.84
2019-02-26T03:52:25.709Z,3.76
2019-02-26T03:53:28.102Z,3.78
2019-02-26T03:54:25.683Z,3.81
2019-02-26T03:55:25.642Z,3.80
2019-02-26T03:56:25.619Z,3.84
2019-02-26T03:57:25.660Z,3.88
2019-02-26T03:58:25.599Z,3.90
2019-02-26T03:59:25.634Z,3.82
2019-02-26T04:00:25.578Z,3.85
2019-02-26T04:01:25.568Z,3.81
2019-02-26T04:02:25.601Z,3.73
2019-02-26T04:03:25.546Z,3.82
2019-02-26T04:04:26.134Z,3.82
2019-02-26T04:05:25.526Z,3.80
2019-02-26T04:06:25.512Z,3.78
2019-02-26T04:07:27.861Z,3.82
2019-02-26T04:08:27.146Z,3.76
2019-02-26T04:09:25.505Z,3.78
2019-02-26T04:10:25.467Z,3.76
2019-02-26T04:11:27.690Z,3.70
2019-02-26T04:12:25.447Z,3.55
2019-02-26T04:13:25.436Z,3.70
2019-02-26T04:14:26.350Z,3.56
2019-02-26T04:15:27.873Z,3.64
2019-02-26T04:16:25.451Z,3.59
2019-02-26T04:17:28.013Z,3.55
2019-02-26T04:18:25.383Z,3.52
2019-02-26T04:19:26.770Z,3.70
2019-02-26T04:20:27.754Z,3.60
2019-02-26T04:21:25.349Z,3.56
2019-02-26T04:22:26.408Z,3.70
2019-02-26T04:23:25.326Z,3.74
2019-02-26T04:24:26.010Z,3.70
2019-02-26T04:25:27.837Z,3.66
2019-02-26T04:26:29.045Z,3.55
2019-02-26T04:27:25.281Z,3.70
2019-02-26T04:28:30.775Z,3.59
2019-02-26T04:29:26.265Z,3.60
2019-02-26T04:30:25.250Z,3.54
2019-02-26T04:31:25.240Z,3.63
2019-02-26T04:32:25.271Z,3.64
2019-02-26T04:33:27.315Z,3.73
2019-02-26T04:34:25.247Z,3.66
2019-02-26T04:35:25.240Z,3.62
2019-02-26T04:36:25.189Z,3.67
2019-02-26T04:37:27.249Z,3.55
2019-02-26T04:38:26.723Z,3.60
2019-02-26T04:39:25.192Z,3.66
2019-02-26T04:40:28.324Z,3.55
2019-02-26T04:41:26.179Z,3.69
2019-02-26T04:42:25.119Z,3.62
2019-02-26T04:43:25.943Z,3.59
2019-02-26T04:44:26.853Z,3.62
2019-02-26T04:45:25.087Z,3.62
2019-02-26T04:46:26.048Z,3.52
2019-02-26T04:47:26.788Z,3.60
2019-02-26T04:48:26.951Z,3.59
2019-02-26T04:49:27.039Z,3.64
2019-02-26T04:50:28.603Z,3.66
2019-02-26T04:51:25.026Z,3.72
2019-02-26T04:52:25.056Z,3.63
2019-02-26T04:53:25.807Z,3.69
2019-02-26T04:54:27.162Z,3.60
2019-02-26T04:55:29.009Z,3.55
2019-02-26T04:56:24.969Z,3.54
2019-02-26T04:57:24.954Z,3.48
2019-02-26T04:58:24.989Z,3.59
2019-02-26T04:59:24.934Z,3.64
2019-02-26T05:00:27.729Z,3.52
2019-02-26T05:01:24.913Z,3.54
2019-02-26T05:02:24.946Z,3.45
2019-02-26T05:03:24.904Z,3.36
2019-02-26T05:04:24.890Z,3.22
2019-02-26T05:05:25.867Z,3.25
2019-02-26T05:06:24.897Z,3.26
2019-02-26T05:07:24.848Z,3.29
2019-02-26T05:08:24.835Z,3.26
2019-02-26T05:09:27.282Z,3.09
2019-02-26T05:10:27.060Z,3.12
2019-02-26T05:11:31.424Z,3.15
2019-02-26T05:12:28.046Z,3.12
2019-02-26T05:13:27.007Z,3.15
2019-02-26T05:14:24.811Z,3.08
2019-02-26T05:15:26.522Z,3.25
2019-02-26T05:16:26.614Z,3.23
2019-02-26T05:17:29.639Z,3.29
2019-02-26T05:18:26.526Z,3.14
2019-02-26T05:19:24.724Z,3.29
2019-02-26T05:20:24.704Z,3.25
2019-02-26T05:21:27.120Z,3.14
2019-02-26T05:22:25.739Z,3.14
2019-02-26T05:23:25.987Z,3.29
2019-02-26T05:24:26.326Z,3.14
2019-02-26T05:25:24.651Z,3.11
2019-02-26T05:26:24.636Z,3.25
2019-02-26T05:27:25.097Z,3.22
2019-02-26T05:28:24.618Z,3.26
2019-02-26T05:29:24.605Z,3.36
2019-02-26T05:30:24.644Z,3.36
2019-02-26T05:31:24.584Z,3.27
2019-02-26T05:32:27.208Z,3.27
2019-02-26T05:33:27.674Z,3.23
2019-02-26T05:34:25.969Z,3.29
2019-02-26T05:35:25.325Z,3.15
2019-02-26T05:36:24.566Z,3.17
2019-02-26T05:37:28.492Z,3.14
2019-02-26T05:38:26.437Z,2.96
2019-02-26T05:39:26.703Z,2.96
2019-02-26T05:40:24.544Z,2.93
2019-02-26T05:41:24.476Z,2.84
2019-02-26T05:42:24.469Z,2.81
2019-02-26T05:43:26.446Z,2.84
2019-02-26T05:44:24.441Z,2.69
2019-02-26T05:45:26.559Z,2.84
2019-02-26T05:46:26.912Z,2.81
2019-02-26T05:47:26.557Z,2.71
2019-02-26T05:48:25.944Z,2.68
2019-02-26T05:49:24.429Z,2.76
2019-02-26T05:50:24.376Z,2.72
2019-02-26T05:51:25.041Z,2.81
2019-02-26T05:52:27.256Z,2.73
2019-02-26T05:53:25.342Z,2.82
2019-02-26T05:54:24.547Z,2.84
2019-02-26T05:55:25.627Z,2.97
2019-02-26T05:56:24.353Z,3.12
2019-02-26T05:57:31.273Z,3.09
2019-02-26T05:58:25.311Z,3.08
2019-02-26T05:59:24.277Z,3.05
2019-02-26T06:00:26.290Z,3.00
2019-02-26T06:01:25.050Z,2.94
2019-02-26T06:02:24.639Z,2.97
2019-02-26T06:03:24.240Z,2.96
2019-02-26T06:04:24.272Z,2.86
2019-02-26T06:05:26.172Z,2.90
2019-02-26T06:06:24.249Z,2.96
2019-02-26T06:07:27.533Z,2.96
2019-02-26T06:08:26.760Z,2.99
2019-02-26T06:09:26.154Z,2.99
2019-02-26T06:10:25.173Z,3.02
2019-02-26T06:11:28.298Z,2.97
2019-02-26T06:12:25.138Z,2.96
2019-02-26T06:13:24.125Z,2.97
2019-02-26T06:14:25.568Z,2.96
2019-02-26T06:15:25.906Z,2.91
2019-02-26T06:16:24.807Z,2.89
2019-02-26T06:17:24.143Z,2.82
2019-02-26T06:18:24.093Z,2.89
2019-02-26T06:19:24.063Z,2.89
2019-02-26T06:20:26.164Z,2.86
2019-02-26T06:21:25.933Z,2.91
2019-02-26T06:22:26.652Z,3.02
2019-02-26T06:23:25.532Z,3.04
2019-02-26T06:24:24.831Z,3.11
2019-02-26T06:25:24.649Z,3.12
2019-02-26T06:26:28.106Z,3.12
2019-02-26T06:27:27.332Z,3.26
2019-02-26T06:28:23.966Z,3.29
2019-02-26T06:29:24.736Z,3.25
2019-02-26T06:30:23.944Z,3.25
2019-02-26T06:31:24.926Z,3.15
2019-02-26T06:32:27.522Z,3.35
2019-02-26T06:33:23.912Z,3.33
2019-02-26T06:34:23.899Z,3.26
2019-02-26T06:35:23.935Z,3.26
2019-02-26T06:36:25.606Z,3.41
2019-02-26T06:37:24.506Z,3.35
2019-02-26T06:38:25.830Z,3.33
2019-02-26T06:39:24.584Z,3.45
2019-02-26T06:40:23.885Z,3.44
2019-02-26T06:41:23.951Z,3.56
2019-02-26T06:42:23.830Z,3.66
2019-02-26T06:43:23.800Z,3.64
2019-02-26T06:44:23.823Z,3.72
2019-02-26T06:45:23.782Z,3.73
2019-02-26T06:46:23.768Z,3.70
2019-02-26T06:47:26.052Z,3.60
2019-02-26T06:48:25.021Z,3.66
2019-02-26T06:49:24.605Z,3.70
2019-02-26T06:50:23.756Z,3.56
2019-02-26T06:51:25.800Z,3.59
2019-02-26T06:52:23.709Z,3.66
2019-02-26T06:53:23.791Z,3.69
2019-02-26T06:54:24.948Z,3.76
2019-02-26T06:55:23.674Z,3.66
2019-02-26T06:56:23.669Z,3.73
2019-02-26T06:57:23.665Z,3.82
2019-02-26T06:58:23.649Z,3.87
2019-02-26T06:59:25.178Z,3.99
2019-02-26T07:00:25.326Z,3.96
2019-02-26T07:01:23.612Z,4.02
2019-02-26T07:02:28.244Z,4.02
2019-02-26T07:03:24.965Z,4.05
2019-02-26T07:04:23.629Z,3.99
2019-02-26T07:05:24.494Z,4.00
2019-02-26T07:06:25.512Z,4.02
2019-02-26T07:07:23.652Z,3.96
2019-02-26T07:08:24.201Z,3.99
2019-02-26T07:09:23.616Z,4.06
2019-02-26T07:10:26.098Z,4.13
2019-02-26T07:11:25.563Z,4.20
2019-02-26T07:12:24.098Z,4.26
2019-02-26T07:13:23.536Z,4.21
2019-02-26T07:14:24.963Z,4.20
2019-02-26T07:15:23.964Z,4.27
2019-02-26T07:16:23.447Z,4.24
2019-02-26T07:17:23.447Z,4.24
2019-02-26T07:18:23.427Z,4.23
2019-02-26T07:19:23.438Z,4.34
2019-02-26T07:20:23.459Z,4.21
2019-02-26T07:21:23.386Z,4.35
2019-02-26T07:22:23.380Z,4.38
2019-02-26T07:23:23.374Z,4.35
2019-02-26T07:24:24.844Z,4.42
2019-02-26T07:25:23.422Z,4.43
2019-02-26T07:26:23.332Z,4.56
2019-02-26T07:27:23.358Z,4.46
2019-02-26T07:28:26.441Z,4.48
2019-02-26T07:29:23.301Z,4.49
2019-02-26T07:30:24.174Z,4.51
2019-02-26T07:31:24.276Z,4.57
2019-02-26T07:32:24.624Z,4.51
2019-02-26T07:33:23.328Z,4.56
2019-02-26T07:34:25.083Z,4.56
2019-02-26T07:35:23.297Z,4.59
2019-02-26T07:36:24.097Z,4.69
2019-02-26T07:37:23.315Z,4.60
2019-02-26T07:38:25.093Z,4.71
2019-02-26T07:39:23.329Z,4.78
2019-02-26T07:40:23.217Z,4.93
2019-02-26T07:41:25.433Z,4.93
2019-02-26T07:42:23.828Z,4.85
2019-02-26T07:43:24.231Z,5.03
2019-02-26T07:44:24.144Z,5.07
2019-02-26T07:45:24.980Z,5.12
2019-02-26T07:46:23.321Z,5.04
2019-02-26T07:47:24.412Z,5.18
2019-02-26T07:48:23.733Z,5.21
2019-02-26T07:49:24.026Z,5.16
2019-02-26T07:50:23.151Z,5.25
2019-02-26T07:51:23.106Z,5.27
2019-02-26T07:52:26.017Z,5.22
2019-02-26T07:53:24.624Z,5.18
2019-02-26T07:54:23.135Z,5.27
2019-02-26T07:55:23.205Z,5.24
2019-02-26T07:56:25.496Z,5.37
2019-02-26T07:57:25.730Z,5.43
2019-02-26T07:58:23.135Z,5.39
2019-02-26T07:59:27.570Z,5.40
2019-02-26T08:00:23.120Z,5.57
2019-02-26T08:01:23.021Z,5.57
2019-02-26T08:02:23.059Z,5.61
2019-02-26T08:03:24.729Z,5.65
2019-02-26T08:04:22.976Z,5.62
2019-02-26T08:06:48.381Z,5.69
2019-02-26T08:09:07.082Z,5.72
2019-02-26T08:10:07.627Z,5.82
2019-02-26T08:11:04.745Z,5.80
2019-02-26T08:12:06.612Z,5.82
2019-02-26T08:13:07.489Z,5.88
2019-02-26T08:14:04.751Z,5.97
2019-02-26T08:15:07.762Z,5.97
2019-02-26T08:16:05.213Z,6.05
2019-02-26T08:17:06.300Z,6.06
2019-02-26T08:18:05.331Z,6.16
2019-02-26T08:19:05.292Z,6.25
2019-02-26T08:20:07.455Z,6.25
2019-02-26T08:21:05.158Z,6.34
2019-02-26T08:22:04.605Z,6.38
2019-02-26T08:23:04.607Z,6.40
2019-02-26T08:24:04.652Z,6.50
2019-02-26T08:25:04.620Z,6.52
2019-02-26T08:26:04.616Z,6.63
2019-02-26T08:27:06.071Z,6.61
2019-02-26T08:28:04.545Z,6.65
2019-02-26T08:29:05.694Z,6.60
2019-02-26T08:30:06.714Z,6.60
2019-02-26T08:31:05.395Z,6.75
2019-02-26T08:32:04.553Z,6.79
2019-02-26T08:33:06.809Z,6.75
2019-02-26T08:34:04.485Z,6.85
2019-02-26T08:35:04.488Z,6.88
2019-02-26T08:36:04.467Z,6.92
2019-02-26T08:37:04.520Z,7.03
2019-02-26T08:38:06.267Z,7.01
2019-02-26T08:39:04.423Z,7.07
2019-02-26T08:40:04.415Z,7.08
2019-02-26T08:41:04.420Z,7.11
2019-02-26T08:42:04.408Z,7.06
2019-02-26T08:43:04.438Z,7.10
2019-02-26T08:44:04.943Z,7.13
2019-02-26T08:45:04.363Z,7.22
2019-02-26T08:46:04.379Z,7.18
2019-02-26T08:47:08.776Z,7.22
2019-02-26T08:48:05.391Z,7.29
2019-02-26T08:49:08.308Z,7.26
2019-02-26T08:50:07.387Z,7.34
2019-02-26T08:51:08.153Z,7.44
2019-02-26T08:52:05.433Z,7.40
2019-02-26T08:53:05.065Z,7.49
2019-02-26T08:54:04.413Z,7.54
2019-02-26T08:55:04.370Z,7.49
2019-02-26T08:56:04.278Z,7.55
2019-02-26T08:57:04.264Z,7.57
2019-02-26T08:58:04.291Z,7.55
2019-02-26T08:59:04.319Z,7.57
2019-02-26T09:00:04.334Z,7.64
2019-02-26T09:01:04.209Z,7.66
2019-02-26T09:02:04.207Z,7.60
2019-02-26T09:03:04.154Z,7.68
2019-02-26T09:04:04.221Z,7.76
2019-02-26T09:05:06.718Z,7.80
2019-02-26T09:06:12.842Z,7.74
2019-02-26T09:07:05.250Z,7.99
2019-02-26T09:08:05.655Z,7.94
2019-02-26T09:09:05.114Z,7.96
2019-02-26T09:10:06.982Z,8.06
2019-02-26T09:11:05.730Z,8.16
2019-02-26T09:12:04.159Z,8.12
2019-02-26T09:13:06.165Z,8.24
2019-02-26T09:14:06.544Z,8.28
2019-02-26T09:15:04.056Z,8.32
2019-02-26T09:16:06.116Z,8.37
2019-02-26T09:17:04.503Z,8.44
2019-02-26T09:18:04.065Z,8.52
2019-02-26T09:19:04.041Z,8.62
2019-02-26T09:20:09.372Z,8.60
2019-02-26T09:21:07.075Z,8.63
2019-02-26T09:22:03.949Z,8.63
2019-02-26T09:23:03.952Z,8.80
2019-02-26T09:24:07.096Z,8.86
2019-02-26T09:25:06.239Z,8.83
2019-02-26T09:26:06.601Z,8.86
2019-02-26T09:27:05.067Z,8.93
2019-02-26T09:28:04.436Z,9.14
2019-02-26T09:29:04.236Z,8.99
2019-02-26T09:30:05.770Z,9.06
2019-02-26T09:31:06.286Z,9.16
2019-02-26T09:32:06.675Z,9.15
2019-02-26T09:33:05.844Z,9.19
2019-02-26T09:34:04.727Z,9.23
2019-02-26T09:35:04.776Z,9.22
2019-02-26T09:36:03.784Z,9.19
2019-02-26T09:37:05.760Z,9.22
2019-02-26T09:38:03.778Z,9.30
2019-02-26T09:39:05.741Z,9.30
2019-02-26T09:40:04.878Z,9.47
2019-02-26T09:41:03.784Z,9.60
2019-02-26T09:42:04.218Z,9.66
2019-02-26T09:43:05.934Z,9.66
2019-02-26T09:44:06.215Z,9.73
2019-02-26T09:45:03.700Z,9.83
2019-02-26T09:46:04.402Z,9.91
2019-02-26T09:47:05.354Z,9.98
2019-02-26T09:48:03.662Z,10.02
2019-02-26T09:49:05.086Z,10.05
2019-02-26T09:50:04.632Z,10.02
2019-02-26T09:51:04.891Z,10.06
2019-02-26T09:52:04.418Z,10.09
2019-02-26T09:53:03.607Z,10.14
2019-02-26T09:54:03.607Z,10.08
2019-02-26T09:55:03.586Z,10.17
2019-02-26T09:56:03.571Z,10.26
2019-02-26T09:57:03.558Z,10.27
2019-02-26T09:58:03.613Z,10.23
2019-02-26T09:59:05.133Z,10.34
2019-02-26T10:00:03.555Z,10.34
2019-02-26T10:01:03.540Z,10.28
2019-02-26T10:02:04.116Z,10.28
2019-02-26T10:03:05.485Z,10.54
2019-02-26T10:04:05.412Z,10.52
2019-02-26T10:05:04.003Z,10.67
2019-02-26T10:06:03.612Z,10.80
2019-02-26T10:07:04.278Z,10.82
2019-02-26T10:08:05.343Z,10.85
2019-02-26T10:09:03.492Z,10.87
2019-02-26T10:10:05.933Z,10.90
2019-02-26T10:11:04.982Z,10.87
2019-02-26T10:12:06.920Z,10.90
2019-02-26T10:13:06.115Z,10.91
2019-02-26T10:14:05.405Z,10.86
2019-02-26T10:15:05.219Z,10.95
2019-02-26T10:16:04.503Z,10.98
2019-02-26T10:17:03.520Z,11.12
2019-02-26T10:18:07.195Z,11.19
2019-02-26T10:19:04.350Z,11.22
2019-02-26T10:20:05.020Z,11.30
2019-02-26T10:21:03.345Z,11.37
2019-02-26T10:22:06.390Z,11.41
2019-02-26T10:23:06.380Z,11.45
2019-02-26T10:24:04.593Z,11.56
2019-02-26T10:25:03.283Z,11.67
2019-02-26T10:26:05.229Z,11.66
2019-02-26T10:27:05.930Z,11.71
2019-02-26T10:28:06.174Z,11.74
2019-02-26T10:29:04.853Z,11.77
2019-02-26T10:30:07.162Z,11.91
2019-02-26T10:31:04.876Z,12.03
2019-02-26T10:32:03.226Z,11.97
2019-02-26T10:33:03.189Z,12.18
2019-02-26T10:34:07.759Z,12.15
2019-02-26T10:35:04.631Z,12.05
2019-02-26T10:36:05.353Z,12.17
2019-02-26T10:37:03.116Z,12.17
2019-02-26T10:38:05.833Z,12.22
2019-02-26T10:39:04.081Z,12.32
2019-02-26T10:40:03.098Z,12.33
2019-02-26T10:41:05.110Z,12.28
2019-02-26T10:42:04.278Z,12.43
2019-02-26T10:43:03.051Z,12.51
2019-02-26T10:44:03.041Z,12.47
2019-02-26T10:45:03.025Z,12.59
2019-02-26T10:46:03.051Z,12.66
2019-02-26T10:47:04.060Z,12.69
2019-02-26T10:48:02.985Z,12.84
2019-02-26T10:49:02.963Z,12.81
2019-02-26T10:50:02.958Z,12.81
2019-02-26T10:51:06.094Z,12.93
2019-02-26T10:52:02.995Z,12.99
2019-02-26T10:53:09.649Z,12.96
2019-02-26T10:54:08.256Z,12.96
2019-02-26T10:55:02.903Z,12.99
2019-02-26T10:56:02.881Z,13.01
2019-02-26T10:57:06.449Z,12.98
2019-02-26T10:58:07.106Z,13.05
2019-02-26T10:59:06.822Z,13.01
2019-02-26T11:00:06.410Z,13.04
2019-02-26T11:01:05.233Z,13.16
2019-02-26T11:02:03.193Z,13.11
2019-02-26T11:03:02.818Z,13.19
2019-02-26T11:04:04.377Z,13.24
2019-02-26T11:05:02.789Z,13.29
2019-02-26T11:06:04.626Z,13.46
2019-02-26T11:07:04.942Z,13.40
2019-02-26T11:08:08.838Z,13.39
2019-02-26T11:09:04.340Z,13.43
2019-02-26T11:10:03.269Z,13.55
2019-02-26T11:11:04.704Z,13.54
2019-02-26T11:12:05.191Z,13.61
2019-02-26T11:13:02.694Z,13.55
2019-02-26T11:14:05.127Z,13.76
2019-02-26T11:15:04.933Z,13.78
2019-02-26T11:16:03.112Z,13.93
2019-02-26T11:17:02.726Z,14.01
2019-02-26T11:18:02.636Z,14.13
2019-02-26T11:19:04.373Z,14.30
2019-02-26T11:20:04.669Z,14.28
2019-02-26T11:21:02.625Z,14.26
2019-02-26T11:22:04.208Z,14.34
2019-02-26T11:23:04.131Z,14.28
2019-02-26T11:24:03.657Z,14.49
2019-02-26T11:25:02.560Z,14.69
2019-02-26T11:26:04.178Z,14.64
2019-02-26T11:27:02.626Z,14.63
2019-02-26T11:28:04.756Z,14.63
2019-02-26T11:29:02.517Z,14.66
2019-02-26T11:30:05.005Z,14.90
2019-02-26T11:31:02.637Z,15.07
2019-02-26T11:32:04.524Z,15.12
2019-02-26T11:33:05.369Z,15.11
2019-02-26T11:34:04.032Z,15.20
2019-02-26T11:35:02.745Z,15.23
2019-02-26T11:36:03.070Z,15.35
2019-02-26T11:37:03.309Z,15.45
2019-02-26T11:38:03.490Z,15.56
2019-02-26T11:39:05.040Z,15.54
2019-02-26T11:40:03.622Z,15.63
2019-02-26T11:41:02.405Z,15.84
2019-02-26T11:42:02.380Z,15.88
2019-02-26T11:43:11.265Z,15.91
2019-02-26T11:44:07.149Z,15.91
2019-02-26T11:45:02.335Z,15.76
2019-02-26T11:46:03.804Z,15.81
2019-02-26T11:47:02.389Z,15.87
2019-02-26T11:48:03.706Z,15.78
2019-02-26T11:49:02.340Z,15.83
2019-02-26T11:50:04.749Z,15.90
2019-02-26T11:51:02.306Z,15.95
2019-02-26T11:52:04.417Z,15.95
2019-02-26T11:53:02.309Z,15.95
2019-02-26T11:54:04.863Z,16.03
2019-02-26T11:55:05.784Z,16.24
2019-02-26T11:56:02.205Z,16.39
2019-02-26T11:57:04.311Z,16.44
2019-02-26T11:58:05.643Z,16.44
2019-02-26T11:59:06.563Z,16.49
2019-02-26T12:00:04.338Z,16.49
2019-02-26T12:01:02.177Z,16.47
2019-02-26T12:02:04.534Z,16.44
2019-02-26T12:03:02.147Z,16.40
2019-02-26T12:04:04.114Z,16.51
2019-02-26T12:05:02.890Z,16.46
2019-02-26T12:06:02.265Z,16.58
2019-02-26T12:07:04.143Z,16.61
2019-02-26T12:08:02.144Z,16.76
2019-02-26T12:09:02.945Z,16.76
2019-02-26T12:10:09.278Z,16.84
2019-02-26T12:11:03.963Z,16.91
2019-02-26T12:12:03.500Z,16.92
2019-02-26T12:13:02.324Z,16.91
2019-02-26T12:14:02.014Z,16.90
2019-02-26T12:15:04.125Z,16.80
2019-02-26T12:16:02.062Z,16.80
2019-02-26T12:17:01.987Z,16.79
2019-02-26T12:18:02.280Z,16.88
2019-02-26T12:19:04.054Z,16.91
2019-02-26T12:20:01.941Z,17.14
2019-02-26T12:21:03.477Z,17.22
2019-02-26T12:22:03.520Z,17.32
2019-02-26T12:23:01.923Z,17.35
2019-02-26T12:24:03.368Z,17.38
2019-02-26T12:25:05.114Z,17.32
2019-02-26T12:26:03.932Z,17.34
2019-02-26T12:27:01.869Z,17.35
2019-02-26T12:28:02.857Z,17.32
2019-02-26T12:29:02.540Z,17.52
2019-02-26T12:30:01.832Z,17.62
2019-02-26T12:31:04.026Z,17.75
2019-02-26T12:32:04.568Z,17.84
2019-02-26T12:33:01.808Z,17.88
2019-02-26T12:34:01.787Z,17.81
2019-02-26T12:35:03.416Z,17.78
2019-02-26T12:36:02.565Z,17.76
2019-02-26T12:37:02.683Z,17.72
2019-02-26T12:39:02.735Z,17.75
2019-02-26T12:40:01.745Z,17.87
2019-02-26T12:41:01.734Z,17.97
2019-02-26T12:42:01.706Z,18.12
2019-02-26T12:43:02.729Z,18.26
2019-02-26T12:44:04.096Z,18.31
2019-02-26T12:45:04.876Z,18.33
2019-02-26T12:46:04.556Z,18.43
2019-02-26T12:47:01.667Z,18.39
2019-02-26T12:48:01.633Z,18.42
2019-02-26T12:49:03.013Z,18.41
2019-02-26T12:50:04.803Z,18.51
2019-02-26T12:51:04.609Z,18.51
2019-02-26T12:52:03.359Z,18.41
2019-02-26T12:53:01.662Z,18.43
2019-02-26T12:54:03.437Z,18.31
2019-02-26T12:55:04.153Z,18.36
2019-02-26T12:56:05.782Z,18.39
2019-02-26T12:57:04.123Z,18.57
2019-02-26T12:58:01.527Z,18.83
2019-02-26T12:59:01.770Z,18.91
2019-02-26T13:00:02.211Z,19.07
2019-02-26T13:01:01.682Z,19.04
2019-02-26T13:02:01.484Z,18.98
2019-02-26T13:03:01.467Z,18.91
2019-02-26T13:04:01.468Z,18.74
2019-02-26T13:05:01.514Z,18.82
2019-02-26T13:06:01.607Z,19.04
2019-02-26T13:07:01.745Z,19.27
2019-02-26T13:08:01.879Z,19.32
2019-02-26T13:09:01.851Z,19.31
2019-02-26T13:10:03.876Z,19.38
2019-02-26T13:11:01.392Z,19.31
2019-02-26T13:12:02.825Z,19.32
2019-02-26T13:13:03.942Z,19.16
2019-02-26T13:14:02.444Z,19.16
2019-02-26T13:15:05.347Z,19.17